sensor_id;sensor_type;location;lat;lon;timestamp;temperature;humidity
8372;DHT22;4223;48.724;8.982;2022-09-29T00:00:49;6.00;99.90
8372;DHT22;4223;48.724;8.982;2022-09-29T00:03:16;6.00;99.90
8372;DHT22;4223;48.724;8.982;2022-09-29T00:05:48;6.00;99.90
8372;DHT22;4223;48.724;8.982;2022-09-29T00:08:15;6.00;99.90
8372;DHT22;4223;48.724;8.982;2022-09-29T00:10:43;6.00;99.90
8372;DHT22;4223;48.724;8.982;2022-09-29T00:13:12;6.00;99.90
8372;DHT22;4223;48.724;8.982;2022-09-29T00:15:39;6.00;99.90
8372;DHT22;4223;48.724;8.982;2022-09-29T00:18:07;6.10;99.90
8372;DHT22;4223;48.724;8.982;2022-09-29T00:20:34;6.10;99.90
8372;DHT22;4223;48.724;8.982;2022-09-29T00:23:01;6.00;99.90
8372;DHT22;4223;48.724;8.982;2022-09-29T00:25:28;6.00;99.90
8372;DHT22;4223;48.724;8.982;2022-09-29T00:27:55;6.00;99.90
8372;DHT22;4223;48.724;8.982;2022-09-29T00:30:23;6.00;99.90
8372;DHT22;4223;48.724;8.982;2022-09-29T00:32:51;6.00;99.90
8372;DHT22;4223;48.724;8.982;2022-09-29T00:35:18;6.10;99.90
8372;DHT22;4223;48.724;8.982;2022-09-29T00:37:44;6.00;99.90
8372;DHT22;4223;48.724;8.982;2022-09-29T00:40:11;6.00;99.90
8372;DHT22;4223;48.724;8.982;2022-09-29T00:42:38;6.10;99.90
8372;DHT22;4223;48.724;8.982;2022-09-29T00:45:20;6.20;99.90
8372;DHT22;4223;48.724;8.982;2022-09-29T00:47:53;6.20;99.90
8372;DHT22;4223;48.724;8.982;2022-09-29T00:50:31;6.30;99.90
8372;DHT22;4223;48.724;8.982;2022-09-29T00:53:03;6.30;99.90
8372;DHT22;4223;48.724;8.982;2022-09-29T00:55:39;6.40;99.90
8372;DHT22;4223;48.724;8.982;2022-09-29T00:58:12;6.40;99.90
8372;DHT22;4223;48.724;8.982;2022-09-29T01:00:42;6.40;99.90
8372;DHT22;4223;48.724;8.982;2022-09-29T01:03:13;6.40;99.90
8372;DHT22;4223;48.724;8.982;2022-09-29T01:05:44;6.50;99.90
8372;DHT22;4223;48.724;8.982;2022-09-29T01:08:16;6.50;99.90
8372;DHT22;4223;48.724;8.982;2022-09-29T01:10:46;6.50;99.90
8372;DHT22;4223;48.724;8.982;2022-09-29T01:13:14;6.50;99.90
8372;DHT22;4223;48.724;8.982;2022-09-29T01:15:41;6.40;99.90
8372;DHT22;4223;48.724;8.982;2022-09-29T01:18:12;6.50;99.90
8372;DHT22;4223;48.724;8.982;2022-09-29T01:20:44;6.50;99.90
8372;DHT22;4223;48.724;8.982;2022-09-29T01:29:43;6.70;99.90
8372;DHT22;4223;48.724;8.982;2022-09-29T01:32:19;6.70;99.90
8372;DHT22;4223;48.724;8.982;2022-09-29T01:34:54;6.70;99.90
8372;DHT22;4223;48.724;8.982;2022-09-29T01:37:41;6.80;99.90
8372;DHT22;4223;48.724;8.982;2022-09-29T01:40:14;6.80;99.90
8372;DHT22;4223;48.724;8.982;2022-09-29T01:42:49;6.80;99.90
8372;DHT22;4223;48.724;8.982;2022-09-29T01:45:24;6.80;99.90
8372;DHT22;4223;48.724;8.982;2022-09-29T01:47:56;6.90;99.90
8372;DHT22;4223;48.724;8.982;2022-09-29T01:50:26;6.90;99.90
8372;DHT22;4223;48.724;8.982;2022-09-29T01:52:58;6.90;99.90
8372;DHT22;4223;48.724;8.982;2022-09-29T01:55:28;7.00;99.90
8372;DHT22;4223;48.724;8.982;2022-09-29T01:57:58;7.00;99.90
8372;DHT22;4223;48.724;8.982;2022-09-29T02:00:28;7.00;99.90
8372;DHT22;4223;48.724;8.982;2022-09-29T02:03:02;7.00;99.90
8372;DHT22;4223;48.724;8.982;2022-09-29T02:05:36;7.00;99.90
8372;DHT22;4223;48.724;8.982;2022-09-29T02:08:08;7.00;99.90
8372;DHT22;4223;48.724;8.982;2022-09-29T02:10:40;7.00;99.90
8372;DHT22;4223;48.724;8.982;2022-09-29T02:13:10;7.00;99.90
8372;DHT22;4223;48.724;8.982;2022-09-29T02:15:41;7.00;99.90
8372;DHT22;4223;48.724;8.982;2022-09-29T02:18:12;7.00;99.90
8372;DHT22;4223;48.724;8.982;2022-09-29T02:20:41;7.00;99.90
8372;DHT22;4223;48.724;8.982;2022-09-29T02:23:08;7.00;99.90
8372;DHT22;4223;48.724;8.982;2022-09-29T02:25:38;7.00;99.90
8372;DHT22;4223;48.724;8.982;2022-09-29T02:28:06;7.00;99.90
8372;DHT22;4223;48.724;8.982;2022-09-29T02:30:34;7.00;99.90
8372;DHT22;4223;48.724;8.982;2022-09-29T02:33:01;7.10;99.90
8372;DHT22;4223;48.724;8.982;2022-09-29T02:35:39;7.10;99.90
8372;DHT22;4223;48.724;8.982;2022-09-29T02:38:13;7.10;99.90
8372;DHT22;4223;48.724;8.982;2022-09-29T02:40:48;7.10;99.90
8372;DHT22;4223;48.724;8.982;2022-09-29T02:43:38;7.10;99.90
8372;DHT22;4223;48.724;8.982;2022-09-29T02:46:19;7.00;99.90
8372;DHT22;4223;48.724;8.982;2022-09-29T02:49:09;7.10;99.90
8372;DHT22;4223;48.724;8.982;2022-09-29T02:51:46;7.10;99.90
8372;DHT22;4223;48.724;8.982;2022-09-29T02:54:25;7.10;99.90
8372;DHT22;4223;48.724;8.982;2022-09-29T02:57:01;7.10;99.90
8372;DHT22;4223;48.724;8.982;2022-09-29T02:59:36;7.10;99.90
8372;DHT22;4223;48.724;8.982;2022-09-29T03:02:05;7.20;99.90
8372;DHT22;4223;48.724;8.982;2022-09-29T03:04:32;7.20;99.90
8372;DHT22;4223;48.724;8.982;2022-09-29T03:07:00;7.20;99.90
8372;DHT22;4223;48.724;8.982;2022-09-29T03:09:27;7.20;99.90
8372;DHT22;4223;48.724;8.982;2022-09-29T03:11:54;7.20;99.90
8372;DHT22;4223;48.724;8.982;2022-09-29T03:14:21;7.20;99.90
8372;DHT22;4223;48.724;8.982;2022-09-29T03:16:48;7.20;99.90
8372;DHT22;4223;48.724;8.982;2022-09-29T03:19:15;7.20;99.90
8372;DHT22;4223;48.724;8.982;2022-09-29T03:21:42;7.20;99.90
8372;DHT22;4223;48.724;8.982;2022-09-29T03:24:10;7.20;99.90
8372;DHT22;4223;48.724;8.982;2022-09-29T03:26:37;7.20;99.90
8372;DHT22;4223;48.724;8.982;2022-09-29T03:29:04;7.20;99.90
8372;DHT22;4223;48.724;8.982;2022-09-29T03:31:31;7.20;99.90
8372;DHT22;4223;48.724;8.982;2022-09-29T03:33:57;7.20;99.90
8372;DHT22;4223;48.724;8.982;2022-09-29T03:36:24;7.10;99.90
8372;DHT22;4223;48.724;8.982;2022-09-29T03:38:51;7.10;99.90
8372;DHT22;4223;48.724;8.982;2022-09-29T03:41:20;7.00;99.90
8372;DHT22;4223;48.724;8.982;2022-09-29T03:43:46;7.00;99.90
8372;DHT22;4223;48.724;8.982;2022-09-29T03:46:13;7.00;99.90
8372;DHT22;4223;48.724;8.982;2022-09-29T03:48:40;6.90;99.90
8372;DHT22;4223;48.724;8.982;2022-09-29T03:51:07;6.90;99.90
8372;DHT22;4223;48.724;8.982;2022-09-29T03:53:35;6.90;99.90
8372;DHT22;4223;48.724;8.982;2022-09-29T03:56:02;6.90;99.90
8372;DHT22;4223;48.724;8.982;2022-09-29T03:58:31;6.80;99.90
8372;DHT22;4223;48.724;8.982;2022-09-29T04:00:58;6.80;99.90
8372;DHT22;4223;48.724;8.982;2022-09-29T04:03:26;6.70;99.90
8372;DHT22;4223;48.724;8.982;2022-09-29T04:05:53;6.70;99.90
8372;DHT22;4223;48.724;8.982;2022-09-29T04:08:20;6.60;99.90
8372;DHT22;4223;48.724;8.982;2022-09-29T04:10:46;6.60;99.90
8372;DHT22;4223;48.724;8.982;2022-09-29T04:13:14;6.50;99.90
8372;DHT22;4223;48.724;8.982;2022-09-29T04:15:42;6.50;99.90
8372;DHT22;4223;48.724;8.982;2022-09-29T04:18:09;6.40;99.90
8372;DHT22;4223;48.724;8.982;2022-09-29T04:20:37;6.40;99.90
8372;DHT22;4223;48.724;8.982;2022-09-29T04:23:04;6.30;99.90
8372;DHT22;4223;48.724;8.982;2022-09-29T04:25:31;6.40;99.90
8372;DHT22;4223;48.724;8.982;2022-09-29T04:27:58;6.30;99.90
8372;DHT22;4223;48.724;8.982;2022-09-29T04:30:25;6.30;99.90
8372;DHT22;4223;48.724;8.982;2022-09-29T04:32:53;6.30;99.90
8372;DHT22;4223;48.724;8.982;2022-09-29T04:35:20;6.20;99.90
8372;DHT22;4223;48.724;8.982;2022-09-29T04:37:47;6.20;99.90
8372;DHT22;4223;48.724;8.982;2022-09-29T04:40:14;6.10;99.90
8372;DHT22;4223;48.724;8.982;2022-09-29T04:42:42;6.10;99.90
8372;DHT22;4223;48.724;8.982;2022-09-29T04:45:09;6.10;99.90
8372;DHT22;4223;48.724;8.982;2022-09-29T04:47:36;6.00;99.90
8372;DHT22;4223;48.724;8.982;2022-09-29T04:50:05;6.00;99.90
8372;DHT22;4223;48.724;8.982;2022-09-29T04:52:32;5.90;99.90
8372;DHT22;4223;48.724;8.982;2022-09-29T04:54:59;5.80;99.90
8372;DHT22;4223;48.724;8.982;2022-09-29T04:57:26;5.70;99.90
8372;DHT22;4223;48.724;8.982;2022-09-29T04:59:53;5.70;99.90
8372;DHT22;4223;48.724;8.982;2022-09-29T05:02:20;5.70;99.90
8372;DHT22;4223;48.724;8.982;2022-09-29T05:04:47;5.70;99.90
8372;DHT22;4223;48.724;8.982;2022-09-29T05:07:16;5.70;99.90
8372;DHT22;4223;48.724;8.982;2022-09-29T05:09:42;5.70;99.90
8372;DHT22;4223;48.724;8.982;2022-09-29T05:12:09;5.70;99.90
8372;DHT22;4223;48.724;8.982;2022-09-29T05:14:36;5.60;99.90
8372;DHT22;4223;48.724;8.982;2022-09-29T05:17:03;5.70;99.90
8372;DHT22;4223;48.724;8.982;2022-09-29T05:19:30;5.60;99.90
8372;DHT22;4223;48.724;8.982;2022-09-29T05:21:57;5.60;99.90
8372;DHT22;4223;48.724;8.982;2022-09-29T05:24:25;5.60;99.90
8372;DHT22;4223;48.724;8.982;2022-09-29T05:26:52;5.60;99.90
8372;DHT22;4223;48.724;8.982;2022-09-29T05:29:19;5.60;99.90
8372;DHT22;4223;48.724;8.982;2022-09-29T05:31:46;5.60;99.90
8372;DHT22;4223;48.724;8.982;2022-09-29T05:34:13;5.60;99.90
8372;DHT22;4223;48.724;8.982;2022-09-29T05:36:40;5.60;99.90
8372;DHT22;4223;48.724;8.982;2022-09-29T05:39:07;5.60;99.90
8372;DHT22;4223;48.724;8.982;2022-09-29T05:41:36;5.60;99.90
8372;DHT22;4223;48.724;8.982;2022-09-29T05:44:03;5.60;99.90
8372;DHT22;4223;48.724;8.982;2022-09-29T05:46:30;5.60;99.90
8372;DHT22;4223;48.724;8.982;2022-09-29T05:48:57;5.60;99.90
8372;DHT22;4223;48.724;8.982;2022-09-29T05:51:24;5.60;99.90
8372;DHT22;4223;48.724;8.982;2022-09-29T05:53:52;5.70;99.90
8372;DHT22;4223;48.724;8.982;2022-09-29T05:56:21;5.80;99.90
8372;DHT22;4223;48.724;8.982;2022-09-29T05:58:50;5.80;99.90
8372;DHT22;4223;48.724;8.982;2022-09-29T06:01:18;5.80;99.90
8372;DHT22;4223;48.724;8.982;2022-09-29T06:03:46;5.90;99.90
8372;DHT22;4223;48.724;8.982;2022-09-29T06:06:14;5.90;99.90
8372;DHT22;4223;48.724;8.982;2022-09-29T06:08:42;5.90;99.90
8372;DHT22;4223;48.724;8.982;2022-09-29T06:11:11;5.90;99.90
8372;DHT22;4223;48.724;8.982;2022-09-29T06:13:38;5.90;99.90
8372;DHT22;4223;48.724;8.982;2022-09-29T06:16:07;5.90;99.90
8372;DHT22;4223;48.724;8.982;2022-09-29T06:18:34;6.00;99.90
8372;DHT22;4223;48.724;8.982;2022-09-29T06:21:02;6.00;99.90
8372;DHT22;4223;48.724;8.982;2022-09-29T06:23:29;6.00;99.90
8372;DHT22;4223;48.724;8.982;2022-09-29T06:25:57;6.10;99.90
8372;DHT22;4223;48.724;8.982;2022-09-29T06:28:24;6.20;99.90
8372;DHT22;4223;48.724;8.982;2022-09-29T06:30:51;6.20;99.90
8372;DHT22;4223;48.724;8.982;2022-09-29T06:33:19;6.40;99.90
8372;DHT22;4223;48.724;8.982;2022-09-29T06:35:47;6.40;99.90
8372;DHT22;4223;48.724;8.982;2022-09-29T06:38:32;6.40;99.90
8372;DHT22;4223;48.724;8.982;2022-09-29T06:40:58;6.50;99.90
8372;DHT22;4223;48.724;8.982;2022-09-29T06:43:26;6.50;99.90
8372;DHT22;4223;48.724;8.982;2022-09-29T06:45:52;6.60;99.90
8372;DHT22;4223;48.724;8.982;2022-09-29T06:48:21;6.70;99.90
8372;DHT22;4223;48.724;8.982;2022-09-29T06:50:48;6.80;99.90
8372;DHT22;4223;48.724;8.982;2022-09-29T06:53:15;6.80;99.90
8372;DHT22;4223;48.724;8.982;2022-09-29T06:55:42;6.80;99.90
8372;DHT22;4223;48.724;8.982;2022-09-29T06:58:09;6.90;99.90
8372;DHT22;4223;48.724;8.982;2022-09-29T07:00:37;7.00;99.90
8372;DHT22;4223;48.724;8.982;2022-09-29T07:03:04;7.00;99.90
8372;DHT22;4223;48.724;8.982;2022-09-29T07:05:33;7.00;99.90
8372;DHT22;4223;48.724;8.982;2022-09-29T07:08:00;7.10;99.90
8372;DHT22;4223;48.724;8.982;2022-09-29T07:10:28;7.10;99.90
8372;DHT22;4223;48.724;8.982;2022-09-29T07:12:55;7.20;99.90
8372;DHT22;4223;48.724;8.982;2022-09-29T07:15:22;7.20;99.90
8372;DHT22;4223;48.724;8.982;2022-09-29T07:17:55;7.20;99.90
8372;DHT22;4223;48.724;8.982;2022-09-29T07:20:22;7.30;99.90
8372;DHT22;4223;48.724;8.982;2022-09-29T07:22:51;7.30;99.90
8372;DHT22;4223;48.724;8.982;2022-09-29T07:25:18;7.30;99.90
8372;DHT22;4223;48.724;8.982;2022-09-29T07:27:45;7.40;99.90
8372;DHT22;4223;48.724;8.982;2022-09-29T07:30:12;7.40;99.90
8372;DHT22;4223;48.724;8.982;2022-09-29T07:32:39;7.50;99.90
8372;DHT22;4223;48.724;8.982;2022-09-29T07:35:06;7.50;99.90
8372;DHT22;4223;48.724;8.982;2022-09-29T07:37:33;7.60;99.90
8372;DHT22;4223;48.724;8.982;2022-09-29T07:40:02;7.60;99.90
8372;DHT22;4223;48.724;8.982;2022-09-29T07:42:29;7.60;99.90
8372;DHT22;4223;48.724;8.982;2022-09-29T07:44:55;7.70;99.90
8372;DHT22;4223;48.724;8.982;2022-09-29T07:47:22;7.70;99.90
8372;DHT22;4223;48.724;8.982;2022-09-29T07:49:49;7.80;99.90
8372;DHT22;4223;48.724;8.982;2022-09-29T07:52:16;7.90;99.90
8372;DHT22;4223;48.724;8.982;2022-09-29T07:54:43;8.00;99.90
8372;DHT22;4223;48.724;8.982;2022-09-29T07:57:11;8.00;99.90
8372;DHT22;4223;48.724;8.982;2022-09-29T07:59:38;8.10;99.90
8372;DHT22;4223;48.724;8.982;2022-09-29T08:02:05;8.20;99.90
8372;DHT22;4223;48.724;8.982;2022-09-29T08:04:32;8.20;99.90
8372;DHT22;4223;48.724;8.982;2022-09-29T08:06:59;8.30;99.90
8372;DHT22;4223;48.724;8.982;2022-09-29T08:09:26;8.40;99.90
8372;DHT22;4223;48.724;8.982;2022-09-29T08:11:53;8.50;99.90
8372;DHT22;4223;48.724;8.982;2022-09-29T08:14:21;8.50;99.90
8372;DHT22;4223;48.724;8.982;2022-09-29T08:16:48;8.60;99.90
8372;DHT22;4223;48.724;8.982;2022-09-29T08:19:15;8.60;99.90
8372;DHT22;4223;48.724;8.982;2022-09-29T08:21:41;8.70;99.90
8372;DHT22;4223;48.724;8.982;2022-09-29T08:24:12;8.90;99.90
8372;DHT22;4223;48.724;8.982;2022-09-29T08:26:39;8.80;99.90
8372;DHT22;4223;48.724;8.982;2022-09-29T08:29:06;9.00;99.90
8372;DHT22;4223;48.724;8.982;2022-09-29T08:31:35;9.00;99.90
8372;DHT22;4223;48.724;8.982;2022-09-29T08:34:02;9.20;99.90
8372;DHT22;4223;48.724;8.982;2022-09-29T08:36:29;9.40;99.90
8372;DHT22;4223;48.724;8.982;2022-09-29T08:38:57;9.60;99.90
8372;DHT22;4223;48.724;8.982;2022-09-29T08:41:33;9.80;90.50
8372;DHT22;4223;48.724;8.982;2022-09-29T08:44:05;9.90;95.80
8372;DHT22;4223;48.724;8.982;2022-09-29T08:46:37;10.10;91.20
8372;DHT22;4223;48.724;8.982;2022-09-29T08:49:09;10.40;69.80
8372;DHT22;4223;48.724;8.982;2022-09-29T08:51:39;10.90;54.40
8372;DHT22;4223;48.724;8.982;2022-09-29T08:54:16;11.10;53.10
8372;DHT22;4223;48.724;8.982;2022-09-29T08:56:47;11.60;38.20
8372;DHT22;4223;48.724;8.982;2022-09-29T08:59:13;11.80;1.00
8372;DHT22;4223;48.724;8.982;2022-09-29T09:01:51;12.20;1.00
8372;DHT22;4223;48.724;8.982;2022-09-29T09:07:27;12.40;1.00
8372;DHT22;4223;48.724;8.982;2022-09-29T09:10:06;12.70;99.90
8372;DHT22;4223;48.724;8.982;2022-09-29T09:12:50;12.80;1.00
8372;DHT22;4223;48.724;8.982;2022-09-29T09:15:36;12.80;99.90
8372;DHT22;4223;48.724;8.982;2022-09-29T09:21:15;12.60;1.00
8372;DHT22;4223;48.724;8.982;2022-09-29T09:23:51;12.40;1.00
8372;DHT22;4223;48.724;8.982;2022-09-29T09:26:22;12.10;1.00
8372;DHT22;4223;48.724;8.982;2022-09-29T09:28:54;12.00;1.00
8372;DHT22;4223;48.724;8.982;2022-09-29T09:31:25;11.80;1.00
8372;DHT22;4223;48.724;8.982;2022-09-29T09:33:56;11.60;1.00
8372;DHT22;4223;48.724;8.982;2022-09-29T09:36:32;11.50;1.00
8372;DHT22;4223;48.724;8.982;2022-09-29T09:39:03;11.30;1.00
8372;DHT22;4223;48.724;8.982;2022-09-29T09:41:34;11.20;1.00
8372;DHT22;4223;48.724;8.982;2022-09-29T09:44:05;11.00;1.00
8372;DHT22;4223;48.724;8.982;2022-09-29T09:46:39;11.10;1.00
8372;DHT22;4223;48.724;8.982;2022-09-29T09:49:15;11.30;1.00
8372;DHT22;4223;48.724;8.982;2022-09-29T09:51:49;11.60;1.00
8372;DHT22;4223;48.724;8.982;2022-09-29T09:54:26;11.70;1.00
8372;DHT22;4223;48.724;8.982;2022-09-29T09:57:11;11.80;1.00
8372;DHT22;4223;48.724;8.982;2022-09-29T09:59:54;12.20;99.90
8372;DHT22;4223;48.724;8.982;2022-09-29T10:02:25;12.40;1.00
8372;DHT22;4223;48.724;8.982;2022-09-29T10:04:52;12.60;1.00
8372;DHT22;4223;48.724;8.982;2022-09-29T10:07:23;12.70;1.00
8372;DHT22;4223;48.724;8.982;2022-09-29T10:09:51;12.50;1.00
8372;DHT22;4223;48.724;8.982;2022-09-29T10:12:19;12.40;1.00
8372;DHT22;4223;48.724;8.982;2022-09-29T10:14:50;12.30;99.90
8372;DHT22;4223;48.724;8.982;2022-09-29T10:17:21;12.30;1.00
8372;DHT22;4223;48.724;8.982;2022-09-29T10:19:54;12.40;99.90
8372;DHT22;4223;48.724;8.982;2022-09-29T10:22:23;12.40;99.90
8372;DHT22;4223;48.724;8.982;2022-09-29T10:24:52;12.40;99.90
8372;DHT22;4223;48.724;8.982;2022-09-29T10:27:23;12.40;1.00
8372;DHT22;4223;48.724;8.982;2022-09-29T10:29:51;12.50;99.90
8372;DHT22;4223;48.724;8.982;2022-09-29T10:32:26;12.60;1.00
8372;DHT22;4223;48.724;8.982;2022-09-29T10:35:05;12.70;1.00
8372;DHT22;4223;48.724;8.982;2022-09-29T10:37:36;12.80;1.00
8372;DHT22;4223;48.724;8.982;2022-09-29T10:40:14;12.90;1.00
8372;DHT22;4223;48.724;8.982;2022-09-29T10:42:43;13.00;1.00
8372;DHT22;4223;48.724;8.982;2022-09-29T10:45:13;13.20;1.00
8372;DHT22;4223;48.724;8.982;2022-09-29T10:47:44;13.10;99.90
8372;DHT22;4223;48.724;8.982;2022-09-29T10:50:14;12.90;99.90
8372;DHT22;4223;48.724;8.982;2022-09-29T10:52:46;13.00;99.90
8372;DHT22;4223;48.724;8.982;2022-09-29T10:55:17;13.20;1.00
8372;DHT22;4223;48.724;8.982;2022-09-29T10:57:45;13.30;1.00
8372;DHT22;4223;48.724;8.982;2022-09-29T11:00:27;13.20;99.90
8372;DHT22;4223;48.724;8.982;2022-09-29T11:03:03;13.10;1.00
8372;DHT22;4223;48.724;8.982;2022-09-29T11:05:31;13.30;1.00
8372;DHT22;4223;48.724;8.982;2022-09-29T11:08:00;13.60;1.00
8372;DHT22;4223;48.724;8.982;2022-09-29T11:10:30;13.80;1.00
8372;DHT22;4223;48.724;8.982;2022-09-29T11:12:57;13.70;1.00
8372;DHT22;4223;48.724;8.982;2022-09-29T11:15:27;13.80;37.80
8372;DHT22;4223;48.724;8.982;2022-09-29T11:17:55;13.80;1.00
8372;DHT22;4223;48.724;8.982;2022-09-29T11:20:27;13.80;1.00
8372;DHT22;4223;48.724;8.982;2022-09-29T11:23:12;13.80;1.00
8372;DHT22;4223;48.724;8.982;2022-09-29T11:28:57;13.60;1.00
8372;DHT22;4223;48.724;8.982;2022-09-29T11:31:37;13.60;99.90
8372;DHT22;4223;48.724;8.982;2022-09-29T11:34:34;13.50;1.00
8372;DHT22;4223;48.724;8.982;2022-09-29T11:37:12;13.50;1.00
8372;DHT22;4223;48.724;8.982;2022-09-29T11:39:50;13.60;1.00
8372;DHT22;4223;48.724;8.982;2022-09-29T11:42:32;13.40;99.90
8372;DHT22;4223;48.724;8.982;2022-09-29T11:45:06;13.40;99.90
8372;DHT22;4223;48.724;8.982;2022-09-29T11:47:52;13.30;72.20
8372;DHT22;4223;48.724;8.982;2022-09-29T11:50:30;13.30;99.90
8372;DHT22;4223;48.724;8.982;2022-09-29T11:53:17;13.30;1.00
8372;DHT22;4223;48.724;8.982;2022-09-29T11:56:00;13.50;1.00
8372;DHT22;4223;48.724;8.982;2022-09-29T11:58:49;13.50;99.90
8372;DHT22;4223;48.724;8.982;2022-09-29T12:01:38;13.50;99.90
8372;DHT22;4223;48.724;8.982;2022-09-29T12:04:16;13.50;82.20
8372;DHT22;4223;48.724;8.982;2022-09-29T12:06:54;13.40;93.00
8372;DHT22;4223;48.724;8.982;2022-09-29T12:12:32;13.10;99.90
8372;DHT22;4223;48.724;8.982;2022-09-29T12:15:16;13.10;99.90
8372;DHT22;4223;48.724;8.982;2022-09-29T12:17:47;13.00;99.90
8372;DHT22;4223;48.724;8.982;2022-09-29T12:20:18;13.00;1.00
8372;DHT22;4223;48.724;8.982;2022-09-29T12:22:47;13.00;1.00
8372;DHT22;4223;48.724;8.982;2022-09-29T12:25:17;13.00;1.00
8372;DHT22;4223;48.724;8.982;2022-09-29T12:27:49;13.00;1.00
8372;DHT22;4223;48.724;8.982;2022-09-29T12:30:20;12.90;99.90
8372;DHT22;4223;48.724;8.982;2022-09-29T12:32:53;12.90;99.90
8372;DHT22;4223;48.724;8.982;2022-09-29T12:35:30;13.10;1.00
8372;DHT22;4223;48.724;8.982;2022-09-29T12:38:05;13.20;1.00
8372;DHT22;4223;48.724;8.982;2022-09-29T12:40:37;13.20;1.00
8372;DHT22;4223;48.724;8.982;2022-09-29T12:43:13;13.20;1.00
8372;DHT22;4223;48.724;8.982;2022-09-29T12:45:50;13.20;1.00
8372;DHT22;4223;48.724;8.982;2022-09-29T12:48:35;13.10;1.00
8372;DHT22;4223;48.724;8.982;2022-09-29T12:51:11;13.10;1.00
8372;DHT22;4223;48.724;8.982;2022-09-29T12:53:44;13.30;1.00
8372;DHT22;4223;48.724;8.982;2022-09-29T12:56:16;13.20;1.00
8372;DHT22;4223;48.724;8.982;2022-09-29T12:58:50;13.40;99.90
8372;DHT22;4223;48.724;8.982;2022-09-29T13:01:22;13.60;99.90
8372;DHT22;4223;48.724;8.982;2022-09-29T13:04:28;13.50;1.00
8372;DHT22;4223;48.724;8.982;2022-09-29T13:10:21;13.20;99.90
8372;DHT22;4223;48.724;8.982;2022-09-29T13:13:12;13.10;99.90
8372;DHT22;4223;48.724;8.982;2022-09-29T13:15:57;12.90;33.10
8372;DHT22;4223;48.724;8.982;2022-09-29T13:21:26;13.00;1.00
8372;DHT22;4223;48.724;8.982;2022-09-29T13:24:20;13.00;1.00
8372;DHT22;4223;48.724;8.982;2022-09-29T13:27:09;13.10;1.00
8372;DHT22;4223;48.724;8.982;2022-09-29T13:29:45;13.10;1.00
8372;DHT22;4223;48.724;8.982;2022-09-29T13:32:14;13.20;1.00
8372;DHT22;4223;48.724;8.982;2022-09-29T13:34:46;13.30;99.90
8372;DHT22;4223;48.724;8.982;2022-09-29T13:37:15;13.30;1.00
8372;DHT22;4223;48.724;8.982;2022-09-29T13:39:49;13.30;99.90
8372;DHT22;4223;48.724;8.982;2022-09-29T13:42:42;13.40;98.30
8372;DHT22;4223;48.724;8.982;2022-09-29T13:45:36;13.30;1.00
8372;DHT22;4223;48.724;8.982;2022-09-29T13:51:42;13.40;1.00
8372;DHT22;4223;48.724;8.982;2022-09-29T13:54:27;13.30;99.90
8372;DHT22;4223;48.724;8.982;2022-09-29T13:57:01;13.30;1.00
8372;DHT22;4223;48.724;8.982;2022-09-29T13:59:30;13.20;99.90
8372;DHT22;4223;48.724;8.982;2022-09-29T14:01:58;13.20;99.90
8372;DHT22;4223;48.724;8.982;2022-09-29T14:04:50;13.10;99.90
8372;DHT22;4223;48.724;8.982;2022-09-29T14:10:25;13.10;1.00
8372;DHT22;4223;48.724;8.982;2022-09-29T14:12:58;13.10;1.00
8372;DHT22;4223;48.724;8.982;2022-09-29T14:15:26;12.90;1.00
8372;DHT22;4223;48.724;8.982;2022-09-29T14:17:56;12.80;1.00
8372;DHT22;4223;48.724;8.982;2022-09-29T14:20:27;12.80;99.90
8372;DHT22;4223;48.724;8.982;2022-09-29T14:23:01;12.80;1.00
8372;DHT22;4223;48.724;8.982;2022-09-29T14:25:53;12.70;99.90
8372;DHT22;4223;48.724;8.982;2022-09-29T14:28:25;12.80;1.00
8372;DHT22;4223;48.724;8.982;2022-09-29T14:30:56;12.80;99.90
8372;DHT22;4223;48.724;8.982;2022-09-29T14:33:33;12.70;62.40
8372;DHT22;4223;48.724;8.982;2022-09-29T14:36:05;12.80;1.00
8372;DHT22;4223;48.724;8.982;2022-09-29T14:38:35;12.70;95.10
8372;DHT22;4223;48.724;8.982;2022-09-29T14:41:24;12.80;99.90
8372;DHT22;4223;48.724;8.982;2022-09-29T14:43:54;12.80;1.00
8372;DHT22;4223;48.724;8.982;2022-09-29T14:49:52;12.90;76.90
8372;DHT22;4223;48.724;8.982;2022-09-29T14:52:50;12.80;1.00
8372;DHT22;4223;48.724;8.982;2022-09-29T14:55:27;12.80;1.00
8372;DHT22;4223;48.724;8.982;2022-09-29T14:58:15;12.80;99.90
8372;DHT22;4223;48.724;8.982;2022-09-29T15:01:03;12.80;99.90
8372;DHT22;4223;48.724;8.982;2022-09-29T15:03:42;12.70;1.00
8372;DHT22;4223;48.724;8.982;2022-09-29T15:06:12;12.60;1.00
8372;DHT22;4223;48.724;8.982;2022-09-29T15:08:40;12.50;99.90
8372;DHT22;4223;48.724;8.982;2022-09-29T15:11:28;12.60;99.90
8372;DHT22;4223;48.724;8.982;2022-09-29T15:13:58;12.50;63.30
8372;DHT22;4223;48.724;8.982;2022-09-29T15:16:31;12.40;1.00
8372;DHT22;4223;48.724;8.982;2022-09-29T15:19:21;12.30;99.90
8372;DHT22;4223;48.724;8.982;2022-09-29T15:22:01;12.30;97.50
8372;DHT22;4223;48.724;8.982;2022-09-29T15:24:44;12.30;99.90
8372;DHT22;4223;48.724;8.982;2022-09-29T15:27:14;12.20;1.00
8372;DHT22;4223;48.724;8.982;2022-09-29T15:29:45;12.30;99.90
8372;DHT22;4223;48.724;8.982;2022-09-29T15:32:21;12.20;1.00
8372;DHT22;4223;48.724;8.982;2022-09-29T15:34:50;12.20;99.90
8372;DHT22;4223;48.724;8.982;2022-09-29T15:37:17;12.20;99.90
8372;DHT22;4223;48.724;8.982;2022-09-29T15:39:48;12.10;1.00
8372;DHT22;4223;48.724;8.982;2022-09-29T15:42:18;12.10;1.00
8372;DHT22;4223;48.724;8.982;2022-09-29T15:44:53;12.10;1.00
8372;DHT22;4223;48.724;8.982;2022-09-29T15:47:27;12.10;1.00
8372;DHT22;4223;48.724;8.982;2022-09-29T15:49:55;12.10;1.00
8372;DHT22;4223;48.724;8.982;2022-09-29T15:52:22;12.10;1.00
8372;DHT22;4223;48.724;8.982;2022-09-29T15:54:56;12.00;1.00
8372;DHT22;4223;48.724;8.982;2022-09-29T15:57:29;11.90;1.00
8372;DHT22;4223;48.724;8.982;2022-09-29T16:00:43;11.90;1.00
8372;DHT22;4223;48.724;8.982;2022-09-29T16:03:13;11.90;1.00
8372;DHT22;4223;48.724;8.982;2022-09-29T16:05:44;11.90;1.00
8372;DHT22;4223;48.724;8.982;2022-09-29T16:08:16;11.80;1.00
8372;DHT22;4223;48.724;8.982;2022-09-29T16:10:49;11.80;1.00
8372;DHT22;4223;48.724;8.982;2022-09-29T16:13:21;11.80;1.00
8372;DHT22;4223;48.724;8.982;2022-09-29T16:15:54;11.70;1.00
8372;DHT22;4223;48.724;8.982;2022-09-29T16:18:24;11.60;1.00
8372;DHT22;4223;48.724;8.982;2022-09-29T16:20:53;11.60;1.00
8372;DHT22;4223;48.724;8.982;2022-09-29T16:23:21;11.60;1.00
8372;DHT22;4223;48.724;8.982;2022-09-29T16:26:11;11.50;1.00
8372;DHT22;4223;48.724;8.982;2022-09-29T16:28:40;11.50;1.00
8372;DHT22;4223;48.724;8.982;2022-09-29T16:31:26;11.40;1.00
8372;DHT22;4223;48.724;8.982;2022-09-29T16:33:55;11.40;1.00
8372;DHT22;4223;48.724;8.982;2022-09-29T16:36:23;11.40;1.00
8372;DHT22;4223;48.724;8.982;2022-09-29T16:38:52;11.30;1.00
8372;DHT22;4223;48.724;8.982;2022-09-29T16:41:24;11.30;1.00
8372;DHT22;4223;48.724;8.982;2022-09-29T16:44:04;11.20;15.70
8372;DHT22;4223;48.724;8.982;2022-09-29T16:46:40;11.20;1.00
8372;DHT22;4223;48.724;8.982;2022-09-29T16:49:13;11.10;11.10
8372;DHT22;4223;48.724;8.982;2022-09-29T16:51:42;11.00;21.10
8372;DHT22;4223;48.724;8.982;2022-09-29T16:54:14;10.90;15.40
8372;DHT22;4223;48.724;8.982;2022-09-29T16:56:42;10.90;19.50
8372;DHT22;4223;48.724;8.982;2022-09-29T16:59:11;10.90;24.60
8372;DHT22;4223;48.724;8.982;2022-09-29T17:01:41;10.80;40.40
8372;DHT22;4223;48.724;8.982;2022-09-29T17:04:09;10.70;41.90
8372;DHT22;4223;48.724;8.982;2022-09-29T17:06:43;10.60;47.30
8372;DHT22;4223;48.724;8.982;2022-09-29T17:09:16;10.40;52.30
8372;DHT22;4223;48.724;8.982;2022-09-29T17:11:44;10.30;54.00
8372;DHT22;4223;48.724;8.982;2022-09-29T17:14:13;10.30;56.20
8372;DHT22;4223;48.724;8.982;2022-09-29T17:16:41;10.20;57.20
8372;DHT22;4223;48.724;8.982;2022-09-29T17:19:09;10.20;61.30